sensor_id;sensor_type;location;lat;lon;timestamp;pressure;altitude;pressure_sealevel;temperature;humidity
65800;BME280;52544;48.116;11.660;2023-03-20T00:03:10;95794.13;;;8.76;100.00
65800;BME280;52544;48.116;11.660;2023-03-20T00:05:36;95799.75;;;8.71;100.00
65800;BME280;52544;48.116;11.660;2023-03-20T00:08:01;95797.94;;;8.72;100.00
65800;BME280;52544;48.116;11.660;2023-03-20T00:10:34;95803.66;;;8.66;100.00
65800;BME280;52544;48.116;11.660;2023-03-20T00:13:00;95810.03;;;8.74;100.00
65800;BME280;52544;48.116;11.660;2023-03-20T00:15:31;95807.66;;;8.71;100.00
65800;BME280;52544;48.116;11.660;2023-03-20T00:17:57;95810.28;;;8.71;100.00
65800;BME280;52544;48.116;11.660;2023-03-20T00:20:23;95802.81;;;8.65;100.00
65800;BME280;52544;48.116;11.660;2023-03-20T00:22:49;95804.88;;;8.73;100.00
65800;BME280;52544;48.116;11.660;2023-03-20T00:25:17;95804.75;;;8.74;100.00
65800;BME280;52544;48.116;11.660;2023-03-20T00:27:44;95808.03;;;8.78;100.00
65800;BME280;52544;48.116;11.660;2023-03-20T00:30:29;95804.28;;;8.69;100.00
65800;BME280;52544;48.116;11.660;2023-03-20T00:32:56;95799.00;;;8.69;100.00
65800;BME280;52544;48.116;11.660;2023-03-20T00:35:27;95805.44;;;8.65;100.00
65800;BME280;52544;48.116;11.660;2023-03-20T00:37:55;95810.50;;;8.68;100.00
65800;BME280;52544;48.116;11.660;2023-03-20T00:40:23;95806.28;;;8.66;100.00
65800;BME280;52544;48.116;11.660;2023-03-20T00:42:57;95801.13;;;8.64;100.00
65800;BME280;52544;48.116;11.660;2023-03-20T00:45:23;95796.22;;;8.60;100.00
65800;BME280;52544;48.116;11.660;2023-03-20T00:47:49;95795.31;;;8.48;100.00
65800;BME280;52544;48.116;11.660;2023-03-20T00:50:29;95802.03;;;8.52;100.00
65800;BME280;52544;48.116;11.660;2023-03-20T00:52:56;95799.34;;;8.65;100.00
65800;BME280;52544;48.116;11.660;2023-03-20T00:55:24;95808.06;;;8.54;100.00
65800;BME280;52544;48.116;11.660;2023-03-20T00:57:57;95802.50;;;8.46;100.00
65800;BME280;52544;48.116;11.660;2023-03-20T01:00:40;95806.69;;;8.48;100.00
65800;BME280;52544;48.116;11.660;2023-03-20T01:03:20;95801.09;;;8.53;100.00
65800;BME280;52544;48.116;11.660;2023-03-20T01:05:47;95812.72;;;8.50;100.00
65800;BME280;52544;48.116;11.660;2023-03-20T01:08:17;95813.44;;;8.52;100.00
65800;BME280;52544;48.116;11.660;2023-03-20T01:10:44;95812.16;;;8.58;100.00
65800;BME280;52544;48.116;11.660;2023-03-20T01:13:36;95803.50;;;8.56;100.00
65800;BME280;52544;48.116;11.660;2023-03-20T01:16:02;95803.78;;;8.64;100.00
65800;BME280;52544;48.116;11.660;2023-03-20T01:18:28;95801.28;;;8.63;100.00
65800;BME280;52544;48.116;11.660;2023-03-20T01:20:56;95804.91;;;8.49;100.00
65800;BME280;52544;48.116;11.660;2023-03-20T01:23:21;95808.28;;;8.51;100.00
65800;BME280;52544;48.116;11.660;2023-03-20T01:25:48;95809.19;;;8.39;100.00
65800;BME280;52544;48.116;11.660;2023-03-20T01:28:20;95811.63;;;8.53;100.00
65800;BME280;52544;48.116;11.660;2023-03-20T01:30:46;95817.03;;;8.51;100.00
65800;BME280;52544;48.116;11.660;2023-03-20T01:33:20;95815.00;;;8.55;100.00
65800;BME280;52544;48.116;11.660;2023-03-20T01:35:48;95814.28;;;8.53;100.00
65800;BME280;52544;48.116;11.660;2023-03-20T01:38:22;95817.66;;;8.55;100.00
65800;BME280;52544;48.116;11.660;2023-03-20T01:40:55;95810.91;;;8.51;100.00
65800;BME280;52544;48.116;11.660;2023-03-20T01:43:23;95808.63;;;8.46;100.00
65800;BME280;52544;48.116;11.660;2023-03-20T01:46:14;95814.28;;;8.53;100.00
65800;BME280;52544;48.116;11.660;2023-03-20T01:51:26;95816.41;;;8.48;100.00
65800;BME280;52544;48.116;11.660;2023-03-20T01:56:29;95810.31;;;8.35;100.00
65800;BME280;52544;48.116;11.660;2023-03-20T01:59:05;95813.41;;;8.41;100.00
65800;BME280;52544;48.116;11.660;2023-03-20T02:01:35;95809.19;;;8.39;100.00
65800;BME280;52544;48.116;11.660;2023-03-20T02:04:01;95818.22;;;8.35;100.00
65800;BME280;52544;48.116;11.660;2023-03-20T02:06:27;95806.31;;;8.42;100.00
65800;BME280;52544;48.116;11.660;2023-03-20T02:08:53;95808.84;;;8.43;100.00
65800;BME280;52544;48.116;11.660;2023-03-20T02:11:21;95811.81;;;8.39;100.00
65800;BME280;52544;48.116;11.660;2023-03-20T02:13:53;95813.72;;;8.37;100.00
65800;BME280;52544;48.116;11.660;2023-03-20T02:16:19;95817.53;;;8.33;100.00
65800;BME280;52544;48.116;11.660;2023-03-20T02:18:47;95821.09;;;8.32;100.00
65800;BME280;52544;48.116;11.660;2023-03-20T02:29:16;95809.78;;;8.42;100.00
65800;BME280;52544;48.116;11.660;2023-03-20T02:42:55;95812.31;;;8.44;100.00
65800;BME280;52544;48.116;11.660;2023-03-20T02:45:27;95812.44;;;8.42;100.00
65800;BME280;52544;48.116;11.660;2023-03-20T02:48:10;95816.41;;;8.48;100.00
65800;BME280;52544;48.116;11.660;2023-03-20T02:50:57;95812.31;;;8.44;100.00
65800;BME280;52544;48.116;11.660;2023-03-20T02:53:42;95814.44;;;8.39;100.00
65800;BME280;52544;48.116;11.660;2023-03-20T02:56:17;95809.31;;;8.37;100.00
65800;BME280;52544;48.116;11.660;2023-03-20T02:59:05;95803.72;;;8.29;100.00
65800;BME280;52544;48.116;11.660;2023-03-20T03:01:37;95812.84;;;8.36;100.00
65800;BME280;52544;48.116;11.660;2023-03-20T03:04:15;95809.19;;;8.39;100.00
65800;BME280;52544;48.116;11.660;2023-03-20T03:06:44;95813.28;;;8.43;100.00
65800;BME280;52544;48.116;11.660;2023-03-20T03:09:18;95811.59;;;8.42;100.00
65800;BME280;52544;48.116;11.660;2023-03-20T03:12:09;95819.41;;;8.31;100.00
65800;BME280;52544;48.116;11.660;2023-03-20T03:14:39;95814.75;;;8.34;100.00
65800;BME280;52544;48.116;11.660;2023-03-20T03:17:07;95817.81;;;8.28;100.00
65800;BME280;52544;48.116;11.660;2023-03-20T03:19:35;95811.50;;;8.31;100.00
65800;BME280;52544;48.116;11.660;2023-03-20T03:22:02;95816.06;;;8.29;100.00
65800;BME280;52544;48.116;11.660;2023-03-20T03:26:55;95813.00;;;8.22;100.00
65800;BME280;52544;48.116;11.660;2023-03-20T03:29:24;95816.06;;;8.29;100.00
65800;BME280;52544;48.116;11.660;2023-03-20T03:31:52;95806.16;;;8.19;100.00
65800;BME280;52544;48.116;11.660;2023-03-20T03:34:20;95815.75;;;8.20;100.00
65800;BME280;52544;48.116;11.660;2023-03-20T03:37:10;95815.44;;;8.25;100.00
65800;BME280;52544;48.116;11.660;2023-03-20T03:40:02;95822.72;;;8.21;100.00
65800;BME280;52544;48.116;11.660;2023-03-20T03:42:31;95823.00;;;8.30;100.00
65800;BME280;52544;48.116;11.660;2023-03-20T03:45:37;95824.91;;;8.27;100.00
65800;BME280;52544;48.116;11.660;2023-03-20T03:50:48;95826.19;;;8.22;100.00
65800;BME280;52544;48.116;11.660;2023-03-20T03:53:27;95828.50;;;8.26;100.00
65800;BME280;52544;48.116;11.660;2023-03-20T03:55:59;95827.88;;;8.23;100.00
65800;BME280;52544;48.116;11.660;2023-03-20T03:58:32;95826.91;;;8.24;100.00
65800;BME280;52544;48.116;11.660;2023-03-20T04:01:02;95834.66;;;8.14;100.00
65800;BME280;52544;48.116;11.660;2023-03-20T04:03:31;95837.06;;;8.17;100.00
65800;BME280;52544;48.116;11.660;2023-03-20T04:06:00;95837.19;;;8.16;100.00
65800;BME280;52544;48.116;11.660;2023-03-20T04:08:27;95843.09;;;8.07;100.00
65800;BME280;52544;48.116;11.660;2023-03-20T04:10:53;95841.31;;;8.07;100.00
65800;BME280;52544;48.116;11.660;2023-03-20T04:13:18;95844.16;;;8.04;100.00
65800;BME280;52544;48.116;11.660;2023-03-20T04:15:44;95851.97;;;8.06;100.00
65800;BME280;52544;48.116;11.660;2023-03-20T04:18:16;95849.75;;;8.12;100.00
65800;BME280;52544;48.116;11.660;2023-03-20T04:20:43;95852.47;;;8.11;100.00
65800;BME280;52544;48.116;11.660;2023-03-20T04:23:09;95856.19;;;8.08;100.00
65800;BME280;52544;48.116;11.660;2023-03-20T04:25:34;95853.25;;;8.00;100.00
65800;BME280;52544;48.116;11.660;2023-03-20T04:28:00;95851.44;;;8.00;100.00
65800;BME280;52544;48.116;11.660;2023-03-20T04:30:25;95862.84;;;8.01;100.00
65800;BME280;52544;48.116;11.660;2023-03-20T04:32:51;95863.47;;;8.05;100.00
65800;BME280;52544;48.116;11.660;2023-03-20T04:35:17;95864.50;;;8.02;100.00
65800;BME280;52544;48.116;11.660;2023-03-20T04:37:42;95863.66;;;8.01;100.00
65800;BME280;52544;48.116;11.660;2023-03-20T04:40:08;95860.72;;;8.06;100.00
65800;BME280;52544;48.116;11.660;2023-03-20T04:42:34;95865.25;;;8.04;100.00
65800;BME280;52544;48.116;11.660;2023-03-20T04:44:59;95875.81;;;8.04;100.00
65800;BME280;52544;48.116;11.660;2023-03-20T04:47:25;95875.06;;;8.02;100.00
65800;BME280;52544;48.116;11.660;2023-03-20T04:49:50;95874.97;;;8.04;100.00
65800;BME280;52544;48.116;11.660;2023-03-20T04:52:16;95874.84;;;8.05;100.00
65800;BME280;52544;48.116;11.660;2023-03-20T04:54:41;95880.88;;;8.07;100.00
65800;BME280;52544;48.116;11.660;2023-03-20T04:57:06;95880.41;;;8.13;100.00
65800;BME280;52544;48.116;11.660;2023-03-20T04:59:32;95887.88;;;8.19;100.00
65800;BME280;52544;48.116;11.660;2023-03-20T05:01:57;95879.88;;;8.21;100.00
65800;BME280;52544;48.116;11.660;2023-03-20T05:04:23;95886.94;;;8.20;100.00
65800;BME280;52544;48.116;11.660;2023-03-20T05:06:48;95882.94;;;8.15;100.00
65800;BME280;52544;48.116;11.660;2023-03-20T05:09:14;95894.56;;;8.12;100.00
65800;BME280;52544;48.116;11.660;2023-03-20T05:11:41;95890.44;;;8.21;100.00
65800;BME280;52544;48.116;11.660;2023-03-20T05:14:07;95893.91;;;8.21;100.00
65800;BME280;52544;48.116;11.660;2023-03-20T05:16:32;95890.50;;;8.19;100.00
65800;BME280;52544;48.116;11.660;2023-03-20T05:18:58;95893.06;;;8.21;100.00
65800;BME280;52544;48.116;11.660;2023-03-20T05:21:23;95897.16;;;8.25;100.00
65800;BME280;52544;48.116;11.660;2023-03-20T05:23:49;95900.66;;;8.25;100.00
65800;BME280;52544;48.116;11.660;2023-03-20T05:26:14;95909.59;;;8.23;100.00
65800;BME280;52544;48.116;11.660;2023-03-20T05:28:40;95903.38;;;8.24;100.00
65800;BME280;52544;48.116;11.660;2023-03-20T05:31:05;95900.84;;;8.22;100.00
65800;BME280;52544;48.116;11.660;2023-03-20T05:33:31;95897.16;;;8.25;100.00
65800;BME280;52544;48.116;11.660;2023-03-20T05:35:56;95914.47;;;8.16;100.00
65800;BME280;52544;48.116;11.660;2023-03-20T05:38:22;95907.09;;;8.21;100.00
65800;BME280;52544;48.116;11.660;2023-03-20T05:40:48;95916.66;;;8.22;100.00
65800;BME280;52544;48.116;11.660;2023-03-20T05:43:14;95913.53;;;8.17;100.00
65800;BME280;52544;48.116;11.660;2023-03-20T05:45:41;95912.78;;;8.15;100.00
65800;BME280;52544;48.116;11.660;2023-03-20T05:48:06;95912.06;;;8.13;100.00
65800;BME280;52544;48.116;11.660;2023-03-20T05:50:32;95916.16;;;8.17;100.00
65800;BME280;52544;48.116;11.660;2023-03-20T05:52:57;95925.34;;;8.24;100.00
65800;BME280;52544;48.116;11.660;2023-03-20T05:55:23;95926.16;;;8.25;100.00
65800;BME280;52544;48.116;11.660;2023-03-20T05:57:48;95926.06;;;8.26;100.00
65800;BME280;52544;48.116;11.660;2023-03-20T06:00:14;95928.47;;;8.30;100.00
65800;BME280;52544;48.116;11.660;2023-03-20T06:02:39;95926.16;;;8.25;100.00
65800;BME280;52544;48.116;11.660;2023-03-20T06:05:05;95928.69;;;8.26;100.00
65800;BME280;52544;48.116;11.660;2023-03-20T06:07:31;95936.09;;;8.21;100.00
65800;BME280;52544;48.116;11.660;2023-03-20T06:09:56;95936.09;;;8.21;100.00
65800;BME280;52544;48.116;11.660;2023-03-20T06:12:22;95936.47;;;8.28;100.00
65800;BME280;52544;48.116;11.660;2023-03-20T06:14:47;95940.53;;;8.21;100.00
65800;BME280;52544;48.116;11.660;2023-03-20T06:17:13;95946.63;;;8.21;100.00
65800;BME280;52544;48.116;11.660;2023-03-20T06:19:38;95941.16;;;8.24;100.00
65800;BME280;52544;48.116;11.660;2023-03-20T06:22:03;95950.94;;;8.22;100.00
65800;BME280;52544;48.116;11.660;2023-03-20T06:24:29;95951.56;;;8.26;100.00
65800;BME280;52544;48.116;11.660;2023-03-20T06:26:54;95950.00;;;8.23;100.00
65800;BME280;52544;48.116;11.660;2023-03-20T06:29:20;95954.00;;;8.29;100.00
65800;BME280;52544;48.116;11.660;2023-03-20T06:31:45;95954.63;;;8.33;100.00
65800;BME280;52544;48.116;11.660;2023-03-20T06:34:10;95956.72;;;8.27;100.00
65800;BME280;52544;48.116;11.660;2023-03-20T06:36:36;95952.00;;;8.33;100.00
65800;BME280;52544;48.116;11.660;2023-03-20T06:39:02;95958.22;;;8.32;100.00
65800;BME280;52544;48.116;11.660;2023-03-20T06:41:28;95959.28;;;8.29;100.00
65800;BME280;52544;48.116;11.660;2023-03-20T06:43:53;95964.44;;;8.31;100.00
65800;BME280;52544;48.116;11.660;2023-03-20T06:46:20;95960.75;;;8.33;100.00
65800;BME280;52544;48.116;11.660;2023-03-20T06:48:45;95959.91;;;8.33;100.00
65800;BME280;52544;48.116;11.660;2023-03-20T06:51:11;95963.91;;;8.25;100.00
65800;BME280;52544;48.116;11.660;2023-03-20T06:53:36;95968.13;;;8.28;100.00
65800;BME280;52544;48.116;11.660;2023-03-20T06:56:04;95960.84;;;8.32;100.00
65800;BME280;52544;48.116;11.660;2023-03-20T06:58:29;95963.72;;;8.29;100.00
65800;BME280;52544;48.116;11.660;2023-03-20T07:00:55;95962.44;;;8.34;100.00
65800;BME280;52544;48.116;11.660;2023-03-20T07:03:20;95966.88;;;8.34;100.00
65800;BME280;52544;48.116;11.660;2023-03-20T07:05:46;95964.22;;;8.34;100.00
65800;BME280;52544;48.116;11.660;2023-03-20T07:08:11;95956.31;;;8.34;100.00
65800;BME280;52544;48.116;11.660;2023-03-20T07:10:37;95968.03;;;8.30;100.00
65800;BME280;52544;48.116;11.660;2023-03-20T07:13:03;95973.81;;;8.35;100.00
65800;BME280;52544;48.116;11.660;2023-03-20T07:15:28;95969.50;;;8.34;100.00
65800;BME280;52544;48.116;11.660;2023-03-20T07:17:54;95972.16;;;8.34;100.00
65800;BME280;52544;48.116;11.660;2023-03-20T07:20:20;95972.88;;;8.48;100.00
65800;BME280;52544;48.116;11.660;2023-03-20T07:22:46;95976.13;;;8.52;100.00
65800;BME280;52544;48.116;11.660;2023-03-20T07:25:12;95973.34;;;8.66;100.00
65800;BME280;52544;48.116;11.660;2023-03-20T07:27:38;95977.78;;;8.66;100.00
65800;BME280;52544;48.116;11.660;2023-03-20T07:30:05;95973.97;;;8.70;100.00
65800;BME280;52544;48.116;11.660;2023-03-20T07:32:31;95974.19;;;8.80;100.00
65800;BME280;52544;48.116;11.660;2023-03-20T07:34:56;95980.69;;;8.87;100.00
65800;BME280;52544;48.116;11.660;2023-03-20T07:37:22;95980.97;;;8.95;100.00
65800;BME280;52544;48.116;11.660;2023-03-20T07:39:47;95978.13;;;8.98;100.00
65800;BME280;52544;48.116;11.660;2023-03-20T07:42:12;95984.97;;;9.00;100.00
65800;BME280;52544;48.116;11.660;2023-03-20T07:44:38;95994.53;;;9.14;100.00
65800;BME280;52544;48.116;11.660;2023-03-20T07:47:04;95992.94;;;9.12;100.00
65800;BME280;52544;48.116;11.660;2023-03-20T07:49:30;96000.81;;;9.24;100.00
65800;BME280;52544;48.116;11.660;2023-03-20T07:51:56;95999.34;;;9.20;100.00
65800;BME280;52544;48.116;11.660;2023-03-20T07:54:22;96003.66;;;9.21;100.00
65800;BME280;52544;48.116;11.660;2023-03-20T07:56:47;96011.16;;;9.27;100.00
65800;BME280;52544;48.116;11.660;2023-03-20T07:59:13;96007.28;;;9.20;100.00
65800;BME280;52544;48.116;11.660;2023-03-20T08:01:38;96005.38;;;9.22;99.89
65800;BME280;52544;48.116;11.660;2023-03-20T08:04:04;95999.13;;;9.23;98.53
65800;BME280;52544;48.116;11.660;2023-03-20T08:06:30;96003.34;;;9.26;99.69
65800;BME280;52544;48.116;11.660;2023-03-20T08:08:55;95998.94;;;9.38;99.91
65800;BME280;52544;48.116;11.660;2023-03-20T08:11:21;96000.00;;;9.59;99.40
65800;BME280;52544;48.116;11.660;2023-03-20T08:13:46;95997.41;;;9.70;97.48
65800;BME280;52544;48.116;11.660;2023-03-20T08:16:12;95991.41;;;9.80;95.68
65800;BME280;52544;48.116;11.660;2023-03-20T08:18:37;96005.00;;;9.86;97.71
65800;BME280;52544;48.116;11.660;2023-03-20T08:21:03;95994.84;;;10.04;95.71
65800;BME280;52544;48.116;11.660;2023-03-20T08:23:28;95993.03;;;10.05;94.62
65800;BME280;52544;48.116;11.660;2023-03-20T08:25:54;96007.56;;;10.10;93.29
65800;BME280;52544;48.116;11.660;2023-03-20T08:28:20;95998.94;;;10.19;92.94
65800;BME280;52544;48.116;11.660;2023-03-20T08:30:46;96000.53;;;10.44;92.62
65800;BME280;52544;48.116;11.660;2023-03-20T08:33:13;95994.03;;;10.48;90.58
65800;BME280;52544;48.116;11.660;2023-03-20T08:35:39;96002.69;;;10.62;91.20
65800;BME280;52544;48.116;11.660;2023-03-20T08:38:04;95996.19;;;10.66;90.53
65800;BME280;52544;48.116;11.660;2023-03-20T08:40:31;95987.41;;;10.65;85.76
65800;BME280;52544;48.116;11.660;2023-03-20T08:42:56;95993.44;;;10.67;88.72
65800;BME280;52544;48.116;11.660;2023-03-20T08:45:22;95985.03;;;10.62;87.73
65800;BME280;52544;48.116;11.660;2023-03-20T08:47:51;95987.78;;;10.61;87.75
65800;BME280;52544;48.116;11.660;2023-03-20T08:50:17;95984.53;;;10.80;87.42
65800;BME280;52544;48.116;11.660;2023-03-20T08:52:43;95995.13;;;10.80;87.65
65800;BME280;52544;48.116;11.660;2023-03-20T08:55:10;95990.25;;;11.07;86.21
65800;BME280;52544;48.116;11.660;2023-03-20T08:57:36;96003.41;;;10.86;83.53
65800;BME280;52544;48.116;11.660;2023-03-20T09:00:05;95991.66;;;10.79;83.60
65800;BME280;52544;48.116;11.660;2023-03-20T09:02:32;95999.91;;;10.97;82.52
65800;BME280;52544;48.116;11.660;2023-03-20T09:04:57;96001.81;;;10.95;82.48
65800;BME280;52544;48.116;11.660;2023-03-20T09:07:23;95996.66;;;10.82;83.70
65800;BME280;52544;48.116;11.660;2023-03-20T09:09:48;95997.78;;;10.68;84.01
65800;BME280;52544;48.116;11.660;2023-03-20T09:12:14;95996.47;;;10.51;86.69
65800;BME280;52544;48.116;11.660;2023-03-20T09:14:39;96000.19;;;10.49;87.02
65800;BME280;52544;48.116;11.660;2023-03-20T09:17:06;95994.66;;;10.52;87.16
65800;BME280;52544;48.116;11.660;2023-03-20T09:19:31;95992.88;;;10.41;87.13
65800;BME280;52544;48.116;11.660;2023-03-20T09:21:57;95993.94;;;10.39;88.26
65800;BME280;52544;48.116;11.660;2023-03-20T09:24:22;95993.47;;;10.45;87.03
65800;BME280;52544;48.116;11.660;2023-03-20T09:26:48;95996.94;;;10.57;86.11
65800;BME280;52544;48.116;11.660;2023-03-20T09:29:13;95999.34;;;10.60;86.28
65800;BME280;52544;48.116;11.660;2023-03-20T09:31:39;96001.41;;;10.67;85.07
65800;BME280;52544;48.116;11.660;2023-03-20T09:34:05;96004.88;;;10.79;84.81
65800;BME280;52544;48.116;11.660;2023-03-20T09:36:31;96003.31;;;10.88;84.64
65800;BME280;52544;48.116;11.660;2023-03-20T09:38:56;96003.72;;;11.04;83.83
65800;BME280;52544;48.116;11.660;2023-03-20T09:41:23;96005.06;;;11.10;80.89
65800;BME280;52544;48.116;11.660;2023-03-20T09:51:56;96001.31;;;11.12;82.22
65800;BME280;52544;48.116;11.660;2023-03-20T09:54:34;96001.69;;;11.08;82.04
65800;BME280;52544;48.116;11.660;2023-03-20T09:57:02;96000.09;;;11.16;82.96
65800;BME280;52544;48.116;11.660;2023-03-20T09:59:29;96004.03;;;11.33;80.98
65800;BME280;52544;48.116;11.660;2023-03-20T10:02:01;95996.91;;;11.34;79.72
65800;BME280;52544;48.116;11.660;2023-03-20T10:04:29;96000.16;;;11.37;79.40
65800;BME280;52544;48.116;11.660;2023-03-20T10:06:55;95989.09;;;11.32;80.82
65800;BME280;52544;48.116;11.660;2023-03-20T10:09:25;95991.00;;;11.41;79.32
65800;BME280;52544;48.116;11.660;2023-03-20T10:15:00;95980.53;;;12.44;76.76
65800;BME280;52544;48.116;11.660;2023-03-20T10:20:31;95976.72;;;12.68;72.94
65800;BME280;52544;48.116;11.660;2023-03-20T10:25:55;95978.22;;;12.61;71.36
65800;BME280;52544;48.116;11.660;2023-03-20T10:28:58;95976.16;;;12.34;71.85
65800;BME280;52544;48.116;11.660;2023-03-20T10:31:43;95971.31;;;12.18;73.93
65800;BME280;52544;48.116;11.660;2023-03-20T10:34:24;95975.69;;;11.98;74.93
65800;BME280;52544;48.116;11.660;2023-03-20T10:37:00;95971.69;;;11.83;75.10
65800;BME280;52544;48.116;11.660;2023-03-20T10:40:00;95976.59;;;11.76;76.47
65800;BME280;52544;48.116;11.660;2023-03-20T10:42:33;95972.16;;;11.56;76.96
65800;BME280;52544;48.116;11.660;2023-03-20T10:45:27;95968.56;;;11.45;77.54
65800;BME280;52544;48.116;11.660;2023-03-20T10:47:57;95965.66;;;11.48;77.18
65800;BME280;52544;48.116;11.660;2023-03-20T10:50:36;95971.59;;;11.41;76.96
65800;BME280;52544;48.116;11.660;2023-03-20T10:53:04;95956.81;;;11.59;76.94
65800;BME280;52544;48.116;11.660;2023-03-20T10:55:36;95956.75;;;11.70;76.18
65800;BME280;52544;48.116;11.660;2023-03-20T10:58:13;95953.59;;;11.76;76.29
65800;BME280;52544;48.116;11.660;2023-03-20T11:00:40;95946.09;;;11.82;76.51
65800;BME280;52544;48.116;11.660;2023-03-20T11:03:06;95953.56;;;11.88;75.56
65800;BME280;52544;48.116;11.660;2023-03-20T11:05:36;95953.31;;;11.91;77.67
65800;BME280;52544;48.116;11.660;2023-03-20T11:08:13;95951.09;;;11.96;73.02
65800;BME280;52544;48.116;11.660;2023-03-20T11:10:41;95951.97;;;12.06;70.83
65800;BME280;52544;48.116;11.660;2023-03-20T11:13:25;95945.38;;;12.21;69.96
65800;BME280;52544;48.116;11.660;2023-03-20T11:15:52;95947.44;;;12.48;69.69
65800;BME280;52544;48.116;11.660;2023-03-20T11:18:18;95934.22;;;13.18;66.21
65800;BME280;52544;48.116;11.660;2023-03-20T11:20:49;95936.56;;;13.89;60.07
65800;BME280;52544;48.116;11.660;2023-03-20T11:23:18;95929.03;;;14.41;58.32
65800;BME280;52544;48.116;11.660;2023-03-20T11:26:05;95935.31;;;14.87;56.68
65800;BME280;52544;48.116;11.660;2023-03-20T11:33:39;95932.75;;;14.85;54.37
65800;BME280;52544;48.116;11.660;2023-03-20T11:36:24;95934.88;;;15.09;52.79
65800;BME280;52544;48.116;11.660;2023-03-20T11:38:51;95918.50;;;15.58;53.57
65800;BME280;52544;48.116;11.660;2023-03-20T11:41:25;95921.00;;;15.95;50.55
65800;BME280;52544;48.116;11.660;2023-03-20T11:43:51;95909.72;;;16.27;51.20
65800;BME280;52544;48.116;11.660;2023-03-20T11:46:19;95909.28;;;16.40;51.93
65800;BME280;52544;48.116;11.660;2023-03-20T11:48:46;95908.84;;;16.61;51.59
65800;BME280;52544;48.116;11.660;2023-03-20T11:51:17;95901.28;;;16.48;49.59
65800;BME280;52544;48.116;11.660;2023-03-20T11:56:19;95905.38;;;17.03;47.52
65800;BME280;52544;48.116;11.660;2023-03-20T12:01:51;95902.63;;;16.44;48.92
65800;BME280;52544;48.116;11.660;2023-03-20T12:04:20;95894.16;;;16.57;45.08
65800;BME280;52544;48.116;11.660;2023-03-20T12:06:56;95891.13;;;16.52;46.83
65800;BME280;52544;48.116;11.660;2023-03-20T12:12:01;95889.84;;;17.14;45.00
65800;BME280;52544;48.116;11.660;2023-03-20T12:14:42;95899.03;;;16.27;45.33
65800;BME280;52544;48.116;11.660;2023-03-20T12:20:18;95903.97;;;14.71;49.83
65800;BME280;52544;48.116;11.660;2023-03-20T12:25:57;95900.69;;;14.40;50.64
65800;BME280;52544;48.116;11.660;2023-03-20T12:34:18;95901.28;;;14.06;52.32
65800;BME280;52544;48.116;11.660;2023-03-20T12:36:48;95892.50;;;13.86;54.19
65800;BME280;52544;48.116;11.660;2023-03-20T12:39:16;95892.63;;;13.85;54.78
65800;BME280;52544;48.116;11.660;2023-03-20T12:44:35;95886.03;;;13.98;55.62
65800;BME280;52544;48.116;11.660;2023-03-20T12:55:38;95890.16;;;13.54;55.68
65800;BME280;52544;48.116;11.660;2023-03-20T13:06:18;95897.13;;;12.97;60.46
65800;BME280;52544;48.116;11.660;2023-03-20T13:09:25;95897.66;;;12.91;58.75
65800;BME280;52544;48.116;11.660;2023-03-20T13:17:37;95894.44;;;12.77;59.71
65800;BME280;52544;48.116;11.660;2023-03-20T13:20:27;95894.16;;;12.81;59.08
65800;BME280;52544;48.116;11.660;2023-03-20T13:23:18;95891.50;;;12.81;61.09
65800;BME280;52544;48.116;11.660;2023-03-20T13:26:12;95898.38;;;12.93;60.80
65800;BME280;52544;48.116;11.660;2023-03-20T13:31:32;95892.22;;;12.92;58.69
65800;BME280;52544;48.116;11.660;2023-03-20T13:34:10;95892.34;;;12.91;58.85
65800;BME280;52544;48.116;11.660;2023-03-20T13:37:16;95890.81;;;12.98;58.82
65800;BME280;52544;48.116;11.660;2023-03-20T13:42:21;95893.28;;;14.06;54.86
65800;BME280;52544;48.116;11.660;2023-03-20T13:44:50;95888.16;;;14.22;53.16
65800;BME280;52544;48.116;11.660;2023-03-20T13:47:22;95881.91;;;14.51;52.92
65800;BME280;52544;48.116;11.660;2023-03-20T13:50:18;95874.94;;;14.95;51.33
65800;BME280;52544;48.116;11.660;2023-03-20T13:52:48;95866.38;;;15.45;51.47
65800;BME280;52544;48.116;11.660;2023-03-20T13:55:23;95858.91;;;15.85;50.00
65800;BME280;52544;48.116;11.660;2023-03-20T13:58:36;95863.41;;;15.66;48.63
65800;BME280;52544;48.116;11.660;2023-03-20T14:03:37;95863.53;;;15.83;48.17
65800;BME280;52544;48.116;11.660;2023-03-20T14:08:48;95852.75;;;15.92;48.00
65800;BME280;52544;48.116;11.660;2023-03-20T14:13:48;95853.19;;;16.74;46.70
65800;BME280;52544;48.116;11.660;2023-03-20T14:16:17;95853.59;;;16.61;45.76
65800;BME280;52544;48.116;11.660;2023-03-20T14:18:46;95849.88;;;16.46;46.07
65800;BME280;52544;48.116;11.660;2023-03-20T14:21:17;95844.72;;;16.53;45.64
65800;BME280;52544;48.116;11.660;2023-03-20T14:23:47;95841.94;;;16.70;45.68
65800;BME280;52544;48.116;11.660;2023-03-20T14:26:34;95842.06;;;16.61;46.05
65800;BME280;52544;48.116;11.660;2023-03-20T14:31:35;95837.91;;;15.28;48.36
65800;BME280;52544;48.116;11.660;2023-03-20T14:37:04;95848.00;;;14.53;50.98
65800;BME280;52544;48.116;11.660;2023-03-20T14:39:43;95839.41;;;14.32;51.32
65800;BME280;52544;48.116;11.660;2023-03-20T14:42:28;95836.13;;;14.10;52.61
65800;BME280;52544;48.116;11.660;2023-03-20T14:48:16;95831.25;;;13.96;52.72
65800;BME280;52544;48.116;11.660;2023-03-20T14:53:55;95836.22;;;13.81;54.22
65800;BME280;52544;48.116;11.660;2023-03-20T14:56:27;95832.44;;;13.84;54.23
65800;BME280;52544;48.116;11.660;2023-03-20T14:58:57;95827.53;;;13.79;54.00
65800;BME280;52544;48.116;11.660;2023-03-20T15:01:27;95828.66;;;13.86;53.37
65800;BME280;52544;48.116;11.660;2023-03-20T15:07:05;95832.31;;;13.75;53.52
65800;BME280;52544;48.116;11.660;2023-03-20T15:09:36;95832.06;;;13.69;53.51
65800;BME280;52544;48.116;11.660;2023-03-20T15:12:04;95824.78;;;13.61;53.25